Time;durP1;ratioP1;P1;durP2;ratioP2;P2;SDS_P1;SDS_P2;PMS_P1;PMS_P2;Temp;Humidity;BMP_temperature;BMP_pressure;BME280_temperature;BME280_humidity;BME280_pressure;Samples;Min_cycle;Max_cycle;Signal;HPM_P1;HPM_P2
2023/04/28 00:00:25;;;;;;;3.67;2.08;;;;;;;7.97;47.19;96484.50;5075240;28;20087;-62
2023/04/28 00:02:52;;;;;;;6.40;1.85;;;;;;;7.95;47.62;96480.22;5075207;28;20517;-64
2023/04/28 00:05:21;;;;;;;3.58;2.13;;;;;;;7.92;47.04;96485.53;5075233;28;20079;-65
2023/04/28 00:07:48;;;;;;;3.50;1.85;;;;;;;7.89;47.91;96475.19;5075077;28;20102;-64
2023/04/28 00:10:16;;;;;;;4.75;1.80;;;;;;;7.87;47.22;96482.19;5074984;28;20049;-63
2023/04/28 00:12:43;;;;;;;3.08;1.88;;;;;;;7.86;47.64;96480.47;5074993;28;20059;-63
2023/04/28 00:15:12;;;;;;;4.60;2.03;;;;;;;7.91;47.28;96486.41;5074887;28;20102;-63
2023/04/28 00:17:41;;;;;;;7.78;1.83;;;;;;;7.87;47.00;96483.03;5074203;28;20044;-65
2023/04/28 00:20:09;;;;;;;5.38;1.80;;;;;;;7.94;47.05;96489.78;5075196;28;20521;-61
2023/04/28 00:22:37;;;;;;;7.53;2.05;;;;;;;7.95;47.33;96493.25;5074954;28;20076;-64
2023/04/28 00:25:05;;;;;;;5.45;1.90;;;;;;;7.99;47.45;96486.19;5074725;28;20066;-62
2023/04/28 00:27:33;;;;;;;2.45;1.55;;;;;;;7.96;47.35;96493.22;5074859;28;20049;-61
2023/04/28 00:30:00;;;;;;;2.08;1.60;;;;;;;7.92;48.10;96486.34;5074606;28;20051;-64
2023/04/28 00:32:27;;;;;;;6.68;1.95;;;;;;;7.88;46.98;96489.94;5074601;28;20055;-63
2023/04/28 00:34:57;;;;;;;5.22;1.75;;;;;;;7.91;47.23;96489.88;5074835;28;20139;-65
2023/04/28 00:37:24;;;;;;;6.88;2.38;;;;;;;7.91;48.21;96492.47;5074579;28;20044;-63
2023/04/28 00:39:55;;;;;;;3.83;1.70;;;;;;;7.88;47.59;96495.16;5074347;28;20078;-62
2023/04/28 00:42:22;;;;;;;4.88;1.80;;;;;;;7.92;47.65;96498.53;5074276;28;20045;-62
2023/04/28 00:44:49;;;;;;;9.25;2.10;;;;;;;7.89;47.65;96496.03;5074253;28;20501;-64
2023/04/28 00:47:18;;;;;;;4.53;1.85;;;;;;;7.87;48.51;96508.22;5074191;28;20055;-64
2023/04/28 00:49:46;;;;;;;8.43;1.60;;;;;;;7.90;48.75;96506.41;5074428;28;20072;-63
2023/04/28 00:52:14;;;;;;;4.07;1.50;;;;;;;7.95;48.75;96509.72;5074183;28;20094;-63
2023/04/28 00:54:42;;;;;;;4.63;1.70;;;;;;;7.91;48.64;96507.22;5074249;28;20412;-66
2023/04/28 00:57:10;;;;;;;8.52;2.00;;;;;;;7.91;48.86;96520.25;5074000;28;20410;-65
2023/04/28 00:59:38;;;;;;;3.10;1.75;;;;;;;7.92;49.01;96512.41;5074220;28;20114;-65
2023/04/28 01:02:06;;;;;;;4.57;2.10;;;;;;;7.83;49.22;96518.72;5073961;28;20072;-65
2023/04/28 01:04:34;;;;;;;2.38;1.85;;;;;;;7.85;49.30;96516.06;5073856;28;20121;-63
2023/04/28 01:07:02;;;;;;;2.85;2.00;;;;;;;7.80;48.40;96517.97;5073794;28;20520;-65
2023/04/28 01:09:31;;;;;;;4.13;2.08;;;;;;;7.82;48.91;96524.84;5074170;28;20052;-65
2023/04/28 01:11:58;;;;;;;6.40;2.00;;;;;;;7.82;48.93;96527.44;5073992;28;20057;-64
2023/04/28 01:14:26;;;;;;;4.40;1.92;;;;;;;7.84;49.47;96535.22;5073775;28;20048;-62
2023/04/28 01:16:53;;;;;;;2.50;1.80;;;;;;;7.87;49.25;96534.28;5073873;28;20052;-64
2023/04/28 01:19:25;;;;;;;3.40;1.80;;;;;;;7.84;49.38;96533.47;5073577;28;20056;-66
2023/04/28 01:21:52;;;;;;;5.20;2.10;;;;;;;7.80;49.35;96538.81;5073668;28;20087;-62
2023/04/28 01:24:21;;;;;;;3.30;2.10;;;;;;;7.73;49.41;96537.25;5073733;28;20048;-63
2023/04/28 01:26:48;;;;;;;2.53;1.80;;;;;;;7.68;50.33;96542.59;5073493;28;20490;-64
2023/04/28 01:29:16;;;;;;;2.83;1.58;;;;;;;7.63;49.91;96544.44;5072678;28;20418;-63
2023/04/28 01:31:43;;;;;;;4.68;2.30;;;;;;;7.59;50.00;96548.91;5073380;28;20049;-64
2023/04/28 01:34:11;;;;;;;5.18;2.03;;;;;;;7.52;51.22;96537.78;5073475;28;20052;-65
2023/04/28 01:36:38;;;;;;;3.08;1.85;;;;;;;7.45;50.24;96550.09;5073369;28;20059;-63
2023/04/28 01:39:05;;;;;;;7.97;1.95;;;;;;;7.35;49.48;96548.63;5073295;28;20079;-66
2023/04/28 01:41:34;;;;;;;4.90;2.10;;;;;;;7.22;48.89;96545.44;5073433;28;20041;-66
2023/04/28 01:44:01;;;;;;;9.80;2.40;;;;;;;7.23;49.85;96548.91;5073323;28;20056;-62
2023/04/28 01:46:28;;;;;;;3.35;1.90;;;;;;;7.16;50.67;96554.25;5073189;28;20052;-65
2023/04/28 01:48:55;;;;;;;4.90;2.38;;;;;;;7.10;49.08;96546.59;5073435;28;20083;-66
2023/04/28 01:51:23;;;;;;;2.78;1.92;;;;;;;7.10;50.80;96546.59;5073406;28;20131;-64
2023/04/28 01:53:50;;;;;;;7.90;2.20;;;;;;;7.03;50.14;96553.72;5073118;28;20052;-66
2023/04/28 01:56:17;;;;;;;5.32;2.33;;;;;;;7.07;48.24;96560.53;5073336;28;20045;-62
2023/04/28 01:58:46;;;;;;;4.75;2.00;;;;;;;7.10;48.43;96561.38;5073489;28;20041;-63
2023/04/28 02:01:13;;;;;;;5.13;1.90;;;;;;;7.13;50.10;96558.72;5073054;28;20132;-65
2023/04/28 02:03:40;;;;;;;2.60;1.80;;;;;;;7.08;49.02;96562.25;5072949;28;20091;-63
2023/04/28 02:06:08;;;;;;;5.28;1.85;;;;;;;7.08;49.47;96561.41;5072892;28;20045;-62
2023/04/28 02:08:38;;;;;;;4.75;1.83;;;;;;;7.06;49.45;96565.78;5073233;28;20048;-63
2023/04/28 02:11:07;;;;;;;2.97;1.50;;;;;;;7.02;50.71;96565.03;5072757;28;20049;-62
2023/04/28 02:13:34;;;;;;;5.97;2.15;;;;;;;6.96;51.48;96565.16;5072920;28;20124;-62
2023/04/28 02:16:03;;;;;;;2.97;1.85;;;;;;;6.80;51.53;96570.69;5072989;28;20106;-63
2023/04/28 02:18:30;;;;;;;3.53;2.03;;;;;;;6.77;50.43;96568.16;5072876;28;20045;-62
2023/04/28 02:20:57;;;;;;;9.10;2.10;;;;;;;6.81;49.91;96575.00;5073139;28;20440;-64
2023/04/28 02:23:24;;;;;;;11.55;2.25;;;;;;;6.81;49.64;96580.19;5072831;28;20053;-64
2023/04/28 02:26:00;;;;;;;4.40;2.03;;;;;;;6.88;49.48;96583.53;5072842;28;20102;-65
2023/04/28 02:28:27;;;;;;;6.65;1.85;;;;;;;6.85;49.50;96581.00;5072799;28;20379;-63
2023/04/28 02:30:54;;;;;;;6.20;2.60;;;;;;;6.88;50.57;96582.66;5072845;28;20051;-65
2023/04/28 02:33:23;;;;;;;1.88;1.40;;;;;;;6.91;51.20;96586.06;5072774;28;20059;-66
2023/04/28 02:35:59;;;;;;;2.53;1.75;;;;;;;6.90;50.85;96588.69;5072687;28;20094;-64
2023/04/28 02:38:26;;;;;;;2.72;2.13;;;;;;;6.83;50.77;96580.16;5072805;28;20048;-65
2023/04/28 02:40:58;;;;;;;4.25;2.05;;;;;;;6.81;50.47;96577.59;5074447;28;20051;-63
2023/04/28 02:43:26;;;;;;;5.72;2.28;;;;;;;6.77;50.04;96582.94;5076458;28;20079;-63
2023/04/28 02:45:53;;;;;;;3.40;1.98;;;;;;;6.85;50.96;96577.53;5076585;28;20537;-63
2023/04/28 02:48:22;;;;;;;2.70;1.95;;;;;;;6.81;50.41;96579.34;5076439;28;20052;-62
2023/04/28 02:50:49;;;;;;;7.22;2.03;;;;;;;6.72;50.86;96583.03;5076474;28;20102;-62
2023/04/28 02:53:17;;;;;;;5.63;2.22;;;;;;;6.73;50.68;96586.47;5076421;28;20060;-61
2023/04/28 02:55:44;;;;;;;2.30;1.92;;;;;;;6.70;50.09;96590.00;5076356;28;20056;-64
2023/04/28 02:58:11;;;;;;;3.63;1.88;;;;;;;6.69;50.22;96596.09;5076446;28;20060;-62
2023/04/28 03:00:38;;;;;;;5.25;2.53;;;;;;;6.64;49.84;96598.78;5076387;28;20554;-66
2023/04/28 03:03:05;;;;;;;7.57;2.00;;;;;;;6.65;50.14;96602.25;5076212;28;20052;-64
2023/04/28 03:05:34;;;;;;;8.07;2.17;;;;;;;6.65;50.58;96607.44;5076227;28;20087;-62
2023/04/28 03:08:02;;;;;;;4.32;2.10;;;;;;;6.61;51.55;96600.56;5076114;28;20174;-66
2023/04/28 03:10:30;;;;;;;4.07;2.13;;;;;;;6.49;51.78;96607.75;5076287;28;20509;-63
2023/04/28 03:12:57;;;;;;;4.43;2.03;;;;;;;6.38;52.02;96607.13;5076199;28;20041;-62
2023/04/28 03:15:28;;;;;;;3.85;2.10;;;;;;;6.21;52.59;96605.72;5075850;28;20131;-62
2023/04/28 03:17:56;;;;;;;1.95;1.77;;;;;;;6.13;53.08;96611.06;5076296;28;20050;-65
2023/04/28 03:20:25;;;;;;;4.32;2.25;;;;;;;6.12;55.59;96601.56;5075855;28;20041;-65
2023/04/28 03:22:55;;;;;;;3.58;1.88;;;;;;;6.04;54.78;96616.41;5075906;28;20051;-63
2023/04/28 03:25:23;;;;;;;4.22;2.35;;;;;;;5.90;57.07;96616.66;5075784;28;20048;-63
2023/04/28 03:27:53;;;;;;;5.63;2.00;;;;;;;5.83;58.21;96618.50;5075892;28;20051;-65
2023/04/28 03:30:22;;;;;;;3.33;1.80;;;;;;;5.77;59.58;96635.03;5075975;28;20044;-63
2023/04/28 03:32:50;;;;;;;5.22;2.50;;;;;;;5.74;60.14;96639.41;5075711;28;20048;-63
2023/04/28 03:35:18;;;;;;;5.50;1.88;;;;;;;5.59;61.24;96636.19;5075683;28;20052;-63
2023/04/28 03:37:47;;;;;;;4.90;2.00;;;;;;;5.55;60.22;96650.97;5075705;28;20045;-63
2023/04/28 03:40:17;;;;;;;8.27;3.67;;;;;;;5.59;59.61;96649.16;5075629;28;20391;-61
2023/04/28 03:42:49;;;;;;;10.63;2.40;;;;;;;5.61;60.97;96651.75;5075306;28;20553;-64
2023/04/28 03:45:30;;;;;;;4.32;1.95;;;;;;;5.53;61.67;96654.47;5075685;28;20041;-66
2023/04/28 03:47:58;;;;;;;6.97;2.30;;;;;;;5.38;62.71;96660.75;5075286;28;20048;-62
2023/04/28 03:50:25;;;;;;;6.95;2.83;;;;;;;5.16;62.72;96671.44;5075394;28;20044;-66
2023/04/28 03:52:53;;;;;;;7.70;2.13;;;;;;;5.12;64.10;96677.56;5074329;28;20082;-66
2023/04/28 03:55:22;;;;;;;3.58;2.15;;;;;;;5.10;63.45;96687.97;5075316;28;20083;-61
2023/04/28 03:57:49;;;;;;;5.43;2.10;;;;;;;5.04;64.20;96686.31;5075189;28;20051;-65
2023/04/28 04:00:17;;;;;;;3.00;2.50;;;;;;;5.12;65.23;96693.97;5075277;28;20044;-65
2023/04/28 04:02:44;;;;;;;8.18;3.15;;;;;;;5.06;65.45;96700.09;5075209;28;20045;-66
2023/04/28 04:05:11;;;;;;;7.70;3.30;;;;;;;5.15;66.20;96699.09;5074973;28;20041;-66
2023/04/28 04:07:39;;;;;;;6.53;2.75;;;;;;;5.55;67.18;96705.47;5074995;28;20479;-63
2023/04/28 04:10:07;;;;;;;10.82;2.65;;;;;;;6.17;65.63;96702.78;5075047;28;20123;-62
2023/04/28 04:12:36;;;;;;;3.17;2.60;;;;;;;6.91;63.80;96708.31;5074922;28;20051;-62
2023/04/28 04:15:04;;;;;;;8.27;2.75;;;;;;;7.70;61.81;96716.13;5074890;28;20055;-62
2023/04/28 04:17:31;;;;;;;5.15;2.30;;;;;;;8.33;59.21;96718.03;5074846;28;20128;-63
2023/04/28 04:19:59;;;;;;;6.28;2.05;;;;;;;8.93;56.75;96714.72;5074848;28;20041;-65
2023/04/28 04:22:27;;;;;;;6.55;2.10;;;;;;;9.53;54.86;96718.19;5074761;28;20044;-65
2023/04/28 04:24:55;;;;;;;3.65;1.83;;;;;;;10.03;53.46;96724.47;5074650;28;20049;-62
2023/04/28 04:27:22;;;;;;;3.40;2.00;;;;;;;10.51;54.04;96725.53;5074860;28;20050;-63
2023/04/28 04:29:51;;;;;;;4.25;2.63;;;;;;;10.93;52.91;96724.03;5074721;28;20106;-62
2023/04/28 04:32:19;;;;;;;4.03;2.15;;;;;;;11.32;51.73;96727.84;5074818;28;20048;-66
2023/04/28 04:34:46;;;;;;;5.15;2.78;;;;;;;11.70;50.85;96731.66;5074615;28;20048;-66
2023/04/28 04:37:13;;;;;;;5.93;2.85;;;;;;;12.08;48.56;96729.31;5074612;28;20087;-63
2023/04/28 04:39:41;;;;;;;4.40;2.30;;;;;;;12.49;49.09;96738.97;5074480;28;20466;-62
2023/04/28 04:42:08;;;;;;;3.83;2.30;;;;;;;12.99;46.62;96744.72;5074188;28;20044;-60
2023/04/28 04:44:36;;;;;;;8.13;2.13;;;;;;;13.46;46.46;96745.22;5074601;28;20075;-63
2023/04/28 04:47:05;;;;;;;2.90;1.80;;;;;;;13.84;45.63;96744.38;5074364;28;20044;-63
2023/04/28 04:49:32;;;;;;;2.92;1.90;;;;;;;14.13;44.27;96747.38;5074180;28;20044;-63
2023/04/28 04:52:01;;;;;;;3.90;2.25;;;;;;;14.49;44.12;96753.50;5074162;28;20041;-64
2023/04/28 04:54:29;;;;;;;4.47;2.80;;;;;;;14.89;43.48;96755.03;5074141;28;20056;-64
2023/04/28 04:56:56;;;;;;;3.40;2.47;;;;;;;15.16;44.12;96759.78;5074108;28;20145;-64
2023/04/28 04:59:24;;;;;;;3.70;2.63;;;;;;;15.14;44.30;96769.59;5073990;28;20131;-62
2023/04/28 05:01:56;;;;;;;4.68;2.33;;;;;;;15.31;43.88;96768.66;5074032;28;20482;-64
2023/04/28 05:04:26;;;;;;;5.13;2.13;;;;;;;15.17;44.13;96766.75;5074118;28;20045;-62
2023/04/28 05:06:53;;;;;;;3.65;2.60;;;;;;;14.97;44.07;96778.34;5073583;28;20430;-60
2023/04/28 05:09:21;;;;;;;2.25;1.80;;;;;;;15.02;43.51;96776.34;5073820;28;20044;-65
2023/04/28 05:11:49;;;;;;;2.83;2.03;;;;;;;15.17;44.21;96777.28;5073811;28;20041;-64
2023/04/28 05:14:16;;;;;;;4.22;2.35;;;;;;;15.17;44.41;96782.56;5073962;28;20048;-61
2023/04/28 05:16:44;;;;;;;4.70;2.10;;;;;;;15.11;44.53;96775.00;5073751;28;20414;-63
2023/04/28 05:19:12;;;;;;;4.65;2.25;;;;;;;14.78;44.90;96784.59;5073596;28;20052;-62
2023/04/28 05:21:42;;;;;;;3.38;2.03;;;;;;;14.58;45.20;96786.41;5073658;28;20398;-63
2023/04/28 05:24:10;;;;;;;3.53;2.28;;;;;;;14.25;46.08;96792.41;5073528;28;20455;-65
2023/04/28 05:26:39;;;;;;;4.70;2.15;;;;;;;14.32;45.00;96793.81;5073548;28;20040;-63
2023/04/28 05:29:06;;;;;;;4.38;2.05;;;;;;;14.58;44.89;96794.31;5073424;28;20084;-62
2023/04/28 05:31:33;;;;;;;4.70;1.95;;;;;;;14.80;43.66;96789.75;5073465;28;20477;-63
2023/04/28 05:34:01;;;;;;;4.68;2.13;;;;;;;14.99;43.81;96790.50;5073436;28;20125;-60
2023/04/28 05:36:30;;;;;;;6.32;2.47;;;;;;;15.03;44.48;96796.47;5073462;28;20049;-61
2023/04/28 05:38:59;;;;;;;2.92;1.90;;;;;;;14.86;43.54;96797.34;5073430;28;20052;-61
2023/04/28 05:41:28;;;;;;;3.72;2.40;;;;;;;14.89;44.87;96805.94;5073391;28;20486;-61
2023/04/28 05:43:56;;;;;;;4.85;1.85;;;;;;;15.10;44.04;96803.13;5073178;28;20072;-61
2023/04/28 05:46:23;;;;;;;3.50;2.10;;;;;;;15.18;40.49;96801.88;5073203;28;20047;-61
2023/04/28 05:48:51;;;;;;;7.35;2.05;;;;;;;15.03;36.25;96801.75;5073098;28;20060;-63
2023/04/28 05:51:18;;;;;;;6.93;1.88;;;;;;;14.65;35.86;96808.88;5073084;28;20048;-63
2023/04/28 05:53:47;;;;;;;5.40;2.17;;;;;;;13.86;37.47;96812.66;5073155;28;20048;-62
2023/04/28 05:56:17;;;;;;;4.22;2.00;;;;;;;13.60;39.78;96804.19;5073114;28;20044;-63
2023/04/28 05:58:45;;;;;;;2.58;1.73;;;;;;;13.47;38.60;96809.16;5073075;28;20048;-61
2023/04/28 06:01:13;;;;;;;5.00;2.30;;;;;;;13.09;38.43;96813.41;5072992;28;20076;-63
2023/04/28 06:03:41;;;;;;;5.18;2.65;;;;;;;12.78;38.52;96817.38;5073096;28;20052;-64
2023/04/28 06:06:09;;;;;;;4.28;2.20;;;;;;;12.47;39.74;96816.03;5073170;28;20040;-65
2023/04/28 06:08:36;;;;;;;6.32;2.20;;;;;;;12.15;40.92;96816.44;5072955;28;20048;-62
2023/04/28 06:11:04;;;;;;;4.03;2.47;;;;;;;11.73;41.57;96820.63;5073027;28;20101;-62
2023/04/28 06:13:33;;;;;;;4.78;2.60;;;;;;;11.31;42.84;96820.41;5073034;28;20109;-64
2023/04/28 06:16:00;;;;;;;6.53;2.47;;;;;;;10.99;43.34;96827.69;5072485;28;20055;-61
2023/04/28 06:18:31;;;;;;;4.43;2.20;;;;;;;10.71;44.11;96826.00;5073133;28;20097;-62
2023/04/28 06:21:01;;;;;;;6.15;2.60;;;;;;;10.98;45.36;96828.56;5073008;28;20044;-62
2023/04/28 06:23:29;;;;;;;7.50;2.70;;;;;;;11.13;44.74;96824.56;5073003;28;20048;-61
2023/04/28 06:26:01;;;;;;;3.08;2.40;;;;;;;11.40;42.71;96821.84;5072959;28;20334;-62
2023/04/28 06:28:30;;;;;;;3.22;2.10;;;;;;;11.12;43.58;96830.72;5072822;28;20098;-62
2023/04/28 06:31:00;;;;;;;4.93;2.17;;;;;;;11.00;43.67;96826.75;5072855;28;20441;-63
2023/04/28 06:33:28;;;;;;;6.57;2.45;;;;;;;10.81;43.92;96830.00;5072772;28;20045;-61
2023/04/28 06:35:55;;;;;;;5.90;2.65;;;;;;;10.55;44.15;96833.50;5072750;28;20076;-60
2023/04/28 06:38:24;;;;;;;6.63;2.65;;;;;;;10.27;44.30;96837.88;5072721;28;20041;-63
2023/04/28 06:40:52;;;;;;;3.42;2.03;;;;;;;10.06;44.87;96837.59;5072565;28;20131;-62
2023/04/28 06:43:20;;;;;;;7.93;2.60;;;;;;;10.24;46.22;96837.97;5072505;28;20502;-61
2023/04/28 06:45:48;;;;;;;8.20;2.20;;;;;;;10.42;44.08;96828.63;5072694;28;20071;-63
2023/04/28 06:48:17;;;;;;;5.63;2.45;;;;;;;10.78;44.58;96840.59;5072815;28;20079;-60
2023/04/28 06:50:45;;;;;;;7.57;2.42;;;;;;;10.98;43.09;96837.28;5072573;28;20425;-63
2023/04/28 06:53:13;;;;;;;7.60;3.00;;;;;;;10.90;42.54;96835.84;5072481;28;20059;-63
2023/04/28 06:55:42;;;;;;;4.97;2.28;;;;;;;10.90;43.24;96828.84;5072609;28;20098;-65
2023/04/28 06:58:10;;;;;;;3.95;2.10;;;;;;;10.80;42.66;96832.66;5072320;28;20440;-62
2023/04/28 07:00:41;;;;;;;8.32;2.40;;;;;;;10.86;42.89;96822.00;5072584;28;20053;-62
2023/04/28 07:03:08;;;;;;;4.93;2.58;;;;;;;10.81;42.77;96830.00;5072551;28;20044;-62
2023/04/28 07:05:38;;;;;;;4.13;2.60;;;;;;;10.53;42.86;96836.16;5072507;28;20051;-64
2023/04/28 07:08:08;;;;;;;11.80;2.88;;;;;;;10.20;44.11;96828.47;5072346;28;20045;-62
2023/04/28 07:10:35;;;;;;;3.55;2.00;;;;;;;10.07;44.97;96828.03;5072669;28;20048;-61
2023/04/28 07:13:05;;;;;;;6.00;2.13;;;;;;;9.94;43.88;96828.38;5072411;28;20055;-62
2023/04/28 07:15:39;;;;;;;3.83;2.27;;;;;;;9.72;45.40;96834.28;5072395;28;20469;-61
2023/04/28 07:18:10;;;;;;;4.93;2.22;;;;;;;9.54;45.49;96825.22;5072302;28;20360;-62
2023/04/28 07:20:40;;;;;;;4.78;2.25;;;;;;;9.40;46.03;96830.00;5072506;28;20052;-62
2023/04/28 07:23:08;;;;;;;4.63;2.00;;;;;;;9.35;46.74;96827.53;5072367;28;20048;-60
2023/04/28 07:25:36;;;;;;;5.95;2.20;;;;;;;9.30;46.50;96837.25;5072210;28;20278;-59
2023/04/28 07:28:08;;;;;;;5.25;2.15;;;;;;;9.21;47.57;96833.13;5074004;28;20052;-62
2023/04/28 07:30:36;;;;;;;4.53;2.53;;;;;;;9.09;47.70;96840.41;5075703;28;20056;-63
2023/04/28 07:33:04;;;;;;;4.40;1.95;;;;;;;8.94;47.38;96828.63;5075674;28;20045;-63
2023/04/28 07:35:32;;;;;;;2.88;1.85;;;;;;;8.94;47.89;96827.78;5075707;28;20433;-64
2023/04/28 07:38:04;;;;;;;5.18;2.08;;;;;;;9.05;47.16;96833.56;5075633;28;20537;-63
2023/04/28 07:40:33;;;;;;;4.03;2.35;;;;;;;9.22;47.27;96833.06;5075780;28;20064;-62
2023/04/28 07:43:02;;;;;;;4.40;2.03;;;;;;;9.44;48.98;96824.66;5075225;28;20441;-63
2023/04/28 07:45:31;;;;;;;5.57;2.53;;;;;;;9.64;46.39;96827.56;5075533;28;20049;-65
2023/04/28 07:47:59;;;;;;;6.00;1.95;;;;;;;9.62;45.33;96822.41;5075685;28;20055;-64
2023/04/28 07:50:27;;;;;;;5.88;2.40;;;;;;;9.64;45.57;96823.22;5075392;28;20449;-61
2023/04/28 07:52:55;;;;;;;3.67;2.40;;;;;;;9.60;45.15;96818.97;5075360;28;20053;-65
2023/04/28 07:55:24;;;;;;;2.20;2.00;;;;;;;9.65;45.58;96824.91;5075247;28;20103;-61
2023/04/28 07:57:57;;;;;;;6.28;2.53;;;;;;;9.69;45.60;96823.09;5075310;28;20486;-65
2023/04/28 08:00:26;;;;;;;3.05;2.10;;;;;;;9.82;46.25;96827.00;5075236;28;20055;-66
2023/04/28 08:02:55;;;;;;;5.32;2.13;;;;;;;9.94;44.57;96819.72;5075545;28;20048;-66
2023/04/28 08:05:25;;;;;;;4.65;2.47;;;;;;;9.99;44.71;96821.28;5075183;28;20114;-63
2023/04/28 08:07:55;;;;;;;3.90;2.13;;;;;;;9.99;44.19;96820.41;5075214;28;20099;-62
2023/04/28 08:10:25;;;;;;;5.10;2.13;;;;;;;9.95;45.31;96824.03;5075086;28;20053;-62
2023/04/28 08:12:53;;;;;;;5.75;2.22;;;;;;;10.06;46.77;96823.72;5075330;28;20079;-66
2023/04/28 08:15:22;;;;;;;5.95;2.22;;;;;;;10.07;44.89;96815.81;5075137;28;20045;-65
2023/04/28 08:17:49;;;;;;;4.50;2.15;;;;;;;10.06;44.30;96819.31;5074870;28;20497;-62
2023/04/28 08:20:18;;;;;;;7.15;2.95;;;;;;;9.87;43.89;96813.81;5074938;28;20413;-64
2023/04/28 08:22:46;;;;;;;5.95;3.58;;;;;;;9.77;44.89;96828.06;5074754;28;20048;-64
2023/04/28 08:25:15;;;;;;;3.97;2.38;;;;;;;9.69;44.13;96817.84;5074881;28;20105;-65
2023/04/28 08:27:45;;;;;;;4.95;2.13;;;;;;;9.67;44.50;96817.03;5074718;28;20040;-67
2023/04/28 08:30:13;;;;;;;3.00;1.95;;;;;;;9.73;43.82;96816.88;5074683;28;20084;-66
2023/04/28 08:32:42;;;;;;;3.80;2.33;;;;;;;9.82;44.98;96815.72;5074563;28;20421;-67
2023/04/28 08:35:11;;;;;;;6.25;2.53;;;;;;;9.95;46.39;96808.34;5074556;28;20146;-66
2023/04/28 08:37:39;;;;;;;8.40;2.75;;;;;;;10.13;46.46;96809.53;5074227;28;20083;-62
2023/04/28 08:40:11;;;;;;;5.60;2.40;;;;;;;10.31;45.93;96805.47;5074242;28;20079;-64
2023/04/28 08:42:40;;;;;;;9.20;4.10;;;;;;;10.48;47.69;96819.78;5074279;28;20087;-63
2023/04/28 08:45:16;;;;;;;5.70;3.03;;;;;;;10.57;46.11;96814.22;5074223;28;20131;-63
2023/04/28 08:47:52;;;;;;;9.85;3.92;;;;;;;10.68;45.64;96807.78;5074337;28;20128;-61
2023/04/28 08:50:23;;;;;;;6.50;2.75;;;;;;;10.77;45.43;96804.84;5074339;28;20135;-62
2023/04/28 08:52:52;;;;;;;3.28;2.25;;;;;;;10.88;46.15;96801.88;5074282;28;20045;-63
2023/04/28 08:55:23;;;;;;;10.60;2.72;;;;;;;11.06;45.78;96804.75;5074132;28;20048;-65
2023/04/28 08:57:52;;;;;;;3.80;2.13;;;;;;;11.29;46.30;96803.06;5074130;28;20050;-63
2023/04/28 09:00:23;;;;;;;7.63;2.47;;;;;;;11.66;45.25;96799.06;5074126;28;20102;-63
2023/04/28 09:02:51;;;;;;;;;;;;;;;12.25;46.04;96794.16;5074505;28;20044;-61
2023/04/28 09:05:18;;;;;;;6.43;2.30;;;;;;;12.76;45.42;96791.19;5073966;28;20439;-65
2023/04/28 09:07:47;;;;;;;5.85;2.22;;;;;;;13.07;43.33;96791.63;5073831;28;20106;-61
2023/04/28 09:10:20;;;;;;;8.65;2.80;;;;;;;13.12;40.47;96789.66;5073653;28;20075;-65
2023/04/28 09:12:51;;;;;;;4.20;2.42;;;;;;;13.13;40.02;96799.22;5073869;28;20131;-66
2023/04/28 09:15:35;;;;;;;6.57;2.30;;;;;;;13.05;39.92;96789.97;5073725;28;20052;-64
2023/04/28 09:18:03;;;;;;;4.80;2.70;;;;;;;13.01;39.69;96789.28;5073698;28;20048;-64
2023/04/28 09:20:35;;;;;;;4.32;2.15;;;;;;;12.96;42.18;96786.00;5073691;28;20123;-64
2023/04/28 09:23:18;;;;;;;5.57;2.38;;;;;;;12.93;41.75;96791.38;5073746;28;20131;-63
2023/04/28 09:26:00;;;;;;;5.25;2.80;;;;;;;12.86;42.65;96781.13;5073490;28;20098;-64
2023/04/28 09:28:27;;;;;;;5.75;2.40;;;;;;;13.10;40.93;96775.72;5073693;28;20045;-64
2023/04/28 09:30:57;;;;;;;4.50;2.10;;;;;;;13.44;42.01;96768.09;5073465;28;20557;-62
2023/04/28 09:33:24;;;;;;;5.07;2.38;;;;;;;13.94;40.18;96762.34;5073552;28;20147;-65
2023/04/28 09:35:52;;;;;;;4.45;2.28;;;;;;;13.94;41.32;96750.03;5073528;28;20059;-65
2023/04/28 09:38:21;;;;;;;4.20;2.30;;;;;;;14.13;42.62;96733.38;5073482;28;20055;-63
2023/04/28 09:40:58;;;;;;;5.20;2.60;;;;;;;14.49;42.01;96755.28;5073348;28;20139;-61
2023/04/28 09:43:27;;;;;;;3.72;2.33;;;;;;;14.51;38.80;96748.19;5073069;28;20084;-62
2023/04/28 09:45:57;;;;;;;6.18;3.00;;;;;;;14.30;40.44;96758.00;5073333;28;20052;-64
2023/04/28 09:48:29;;;;;;;5.03;2.22;;;;;;;13.79;37.03;96758.66;5073424;28;20047;-64
2023/04/28 09:50:58;;;;;;;3.67;2.30;;;;;;;13.93;38.57;96752.75;5072334;28;20055;-64
2023/04/28 09:53:26;;;;;;;3.75;2.63;;;;;;;14.09;38.23;96745.81;5073308;28;20429;-62
2023/04/28 09:55:55;;;;;;;5.63;2.42;;;;;;;14.04;38.25;96732.03;5073223;28;20045;-62
2023/04/28 09:58:24;;;;;;;7.45;2.95;;;;;;;14.07;39.72;96716.13;5073200;28;20720;-62
2023/04/28 10:00:54;;;;;;;7.95;3.15;;;;;;;14.10;39.59;96739.63;5073183;28;20055;-64
2023/04/28 10:03:25;;;;;;;4.60;2.78;;;;;;;14.05;37.29;96738.16;5073136;28;20071;-62
2023/04/28 10:05:53;;;;;;;5.30;3.20;;;;;;;13.88;37.82;96734.56;5073225;28;20099;-63
2023/04/28 10:08:23;;;;;;;4.72;3.33;;;;;;;13.72;39.28;96726.53;5073021;28;20452;-63
2023/04/28 10:10:53;;;;;;;4.88;2.90;;;;;;;13.83;39.60;96726.91;5073044;28;20044;-63
2023/04/28 10:13:22;;;;;;;6.63;2.78;;;;;;;14.03;37.73;96733.81;5072926;28;20086;-63
2023/04/28 10:15:50;;;;;;;4.45;2.67;;;;;;;13.87;38.00;96717.06;5072965;28;20055;-64
2023/04/28 10:18:18;;;;;;;3.55;2.55;;;;;;;13.77;38.91;96725.44;5072948;28;20045;-65
2023/04/28 10:20:50;;;;;;;4.85;2.90;;;;;;;13.65;39.51;96718.13;5072875;28;20433;-62
2023/04/28 10:23:46;;;;;;;3.22;2.30;;;;;;;13.74;39.63;96729.97;5072875;28;20106;-62
2023/04/28 10:26:17;;;;;;;4.20;2.53;;;;;;;13.98;36.83;96713.94;5072910;28;20048;-64
2023/04/28 10:28:49;;;;;;;3.85;2.60;;;;;;;14.08;36.06;96714.31;5072855;28;20452;-60
2023/04/28 10:31:19;;;;;;;5.72;2.67;;;;;;;14.09;38.10;96714.25;5072680;28;20045;-62
2023/04/28 10:33:48;;;;;;;6.80;2.50;;;;;;;14.30;37.98;96705.38;5072745;28;20406;-65
2023/04/28 10:36:45;;;;;;;3.00;2.53;;;;;;;14.66;37.64;96707.06;5072833;28;20045;-60
2023/04/28 10:39:19;;;;;;;4.63;2.40;;;;;;;14.78;36.74;96706.44;5070525;28;20059;-60
2023/04/28 10:41:49;;;;;;;5.68;2.03;;;;;;;14.35;35.26;96713.88;5072755;28;20049;-63
2023/04/28 10:44:45;;;;;;;2.45;2.20;;;;;;;13.86;37.29;96704.84;5072746;28;20405;-60
2023/04/28 10:47:13;;;;;;;2.55;2.10;;;;;;;13.94;36.05;96702.69;5072671;28;20053;-63
2023/04/28 10:50:08;;;;;;;4.18;2.47;;;;;;;14.17;35.73;96692.81;5072820;28;20425;-59
2023/04/28 10:52:51;;;;;;;4.15;2.25;;;;;;;14.49;34.05;96697.38;5048715;28;20124;-62
2023/04/28 10:55:36;;;;;;;10.68;2.30;;;;;;;14.83;39.36;96677.22;5072556;28;20045;-60
2023/04/28 10:58:33;;;;;;;3.42;2.10;;;;;;;14.81;33.75;96683.50;5072511;28;20049;-61
2023/04/28 11:01:25;;;;;;;4.55;2.03;;;;;;;14.90;36.93;96691.75;5072825;28;20049;-63
2023/04/28 11:03:58;;;;;;;3.33;2.22;;;;;;;15.12;37.53;96681.84;5076498;28;20044;-63
2023/04/28 11:06:27;;;;;;;6.30;2.97;;;;;;;15.14;35.38;96701.09;5076279;28;20131;-64
2023/04/28 11:08:56;;;;;;;2.67;2.20;;;;;;;14.95;33.88;96688.03;5076157;28;20048;-65
2023/04/28 11:11:25;;;;;;;4.80;2.47;;;;;;;14.45;34.76;96688.78;5076034;28;20057;-65
2023/04/28 11:13:58;;;;;;;4.28;2.10;;;;;;;14.45;36.37;96683.50;5075969;28;20406;-64
2023/04/28 11:16:26;;;;;;;3.80;2.08;;;;;;;14.88;36.36;96690.16;5076016;28;20044;-65
2023/04/28 11:19:05;;;;;;;4.82;2.17;;;;;;;14.88;35.67;96691.00;5076030;28;20045;-61
2023/04/28 11:21:34;;;;;;;5.22;2.40;;;;;;;14.68;34.89;96699.91;5076061;28;20102;-63
2023/04/28 11:24:08;;;;;;;4.53;2.30;;;;;;;14.64;35.20;96698.38;5076090;28;20052;-62
2023/04/28 11:26:42;;;;;;;4.82;2.30;;;;;;;14.72;33.33;96679.56;5075806;28;20052;-64
2023/04/28 11:29:13;;;;;;;4.57;2.03;;;;;;;14.74;33.84;96694.31;5075860;28;20052;-62
2023/04/28 11:31:50;;;;;;;4.57;2.47;;;;;;;14.51;34.61;96706.06;5075732;28;20059;-65
2023/04/28 11:34:27;;;;;;;3.60;2.13;;;;;;;14.53;35.83;96701.56;5075729;28;20387;-65
2023/04/28 11:36:58;;;;;;;5.75;2.28;;;;;;;14.62;36.66;96698.44;5075632;28;20050;-64
2023/04/28 11:39:29;;;;;;;4.13;2.30;;;;;;;14.68;35.67;96706.94;5075778;28;20102;-61
2023/04/28 11:42:03;;;;;;;5.35;2.00;;;;;;;14.73;33.72;96705.81;5075324;28;20053;-64
2023/04/28 11:44:31;;;;;;;3.70;2.28;;;;;;;14.22;34.09;96700.47;5075537;28;20479;-61
2023/04/28 11:47:01;;;;;;;6.65;2.10;;;;;;;14.10;36.18;96697.56;5075657;28;20056;-65